EWG2VM EGLL-EDLW
Flight info
| Callsign | EWG2VM |
|---|---|
| Flight time | 1h 15m |
| Altitude | 33000 |
| Route | BPK Q295 MATCH DCT REDFA L620 TACHA DCT PAM L620 SONEB/N0398F230 Z841 DOMEG DOMEG2A |
| Aircraft | A320/M-SDE3FGHIRWY/LB1 |
Departure
| Time | 2026-05-06 16:12 |
|---|---|
| Airport | London Heathrow Airport (EGLL) |
Arrival
| Time | 2026-05-06 17:27 |
|---|---|
| Airport | Dortmund Airport (EDLW) |
| Time | Latitude | Longitude | Altitude | Speed | Heading |
|---|---|---|---|---|---|
| 2026-05-06 15:49 | 51.46835 | -0.44980 | 89 ft | 0 kts | 0° |
| 2026-05-06 16:00 | 51.46825 | -0.44980 | 89 ft | 4 kts | 359° |
| 2026-05-06 16:01 | 51.46798 | -0.44977 | 88 ft | 4 kts | 351° |
| 2026-05-06 16:01 | 51.46772 | -0.44967 | 86 ft | 4 kts | 333° |
| 2026-05-06 16:01 | 51.46754 | -0.44943 | 86 ft | 3 kts | 277° |
| 2026-05-06 16:01 | 51.46753 | -0.44930 | 85 ft | 0 kts | 270° |
| 2026-05-06 16:04 | 51.46753 | -0.44953 | 87 ft | 5 kts | 270° |
| 2026-05-06 16:04 | 51.46754 | -0.45034 | 85 ft | 10 kts | 270° |
| 2026-05-06 16:05 | 51.46753 | -0.45173 | 85 ft | 15 kts | 270° |
| 2026-05-06 16:05 | 51.46752 | -0.45369 | 85 ft | 20 kts | 270° |
| 2026-05-06 16:05 | 51.46752 | -0.45631 | 85 ft | 26 kts | 269° |
| 2026-05-06 16:05 | 51.46748 | -0.45917 | 85 ft | 28 kts | 270° |
| 2026-05-06 16:06 | 51.46748 | -0.46209 | 85 ft | 19 kts | 266° |
| 2026-05-06 16:06 | 51.46748 | -0.46460 | 85 ft | 26 kts | 271° |
| 2026-05-06 16:06 | 51.46748 | -0.46749 | 87 ft | 24 kts | 269° |
| 2026-05-06 16:06 | 51.46748 | -0.47035 | 86 ft | 25 kts | 269° |
| 2026-05-06 16:07 | 51.46747 | -0.47294 | 87 ft | 21 kts | 269° |
| 2026-05-06 16:07 | 51.46746 | -0.47562 | 85 ft | 27 kts | 271° |
| 2026-05-06 16:07 | 51.46745 | -0.47859 | 85 ft | 29 kts | 270° |
| 2026-05-06 16:07 | 51.46744 | -0.48160 | 85 ft | 25 kts | 269° |
| 2026-05-06 16:08 | 51.46741 | -0.48384 | 85 ft | 12 kts | 265° |
| 2026-05-06 16:08 | 51.46703 | -0.48466 | 86 ft | 12 kts | 192° |
| 2026-05-06 16:08 | 51.46652 | -0.48468 | 88 ft | 4 kts | 180° |
| 2026-05-06 16:08 | 51.46616 | -0.48468 | 89 ft | 6 kts | 180° |
| 2026-05-06 16:09 | 51.46597 | -0.48469 | 89 ft | 0 kts | 180° |
| 2026-05-06 16:10 | 51.46595 | -0.48469 | 89 ft | 2 kts | 181° |
| 2026-05-06 16:10 | 51.46568 | -0.48470 | 89 ft | 4 kts | 180° |
| 2026-05-06 16:11 | 51.46520 | -0.48469 | 88 ft | 11 kts | 179° |
| 2026-05-06 16:11 | 51.46479 | -0.48392 | 87 ft | 9 kts | 91° |
| 2026-05-06 16:11 | 51.46479 | -0.48330 | 87 ft | 10 kts | 90° |
| 2026-05-06 16:11 | 51.46486 | -0.47809 | 87 ft | 94 kts | 90° |
| 2026-05-06 16:12 | 51.46495 | -0.46297 | 94 ft | 171 kts | 87° |
| 2026-05-06 16:12 | 51.46486 | -0.44237 | 599 ft | 197 kts | 87° |
| 2026-05-06 16:12 | 51.46529 | -0.42098 | 1497 ft | 188 kts | 77° |
| 2026-05-06 16:12 | 51.47112 | -0.40146 | 1941 ft | 209 kts | 47° |
| 2026-05-06 16:13 | 51.48115 | -0.38250 | 2600 ft | 235 kts | 48° |
| 2026-05-06 16:13 | 51.49186 | -0.36155 | 3514 ft | 248 kts | 49° |
| 2026-05-06 16:13 | 51.50279 | -0.33982 | 4607 ft | 254 kts | 50° |
| 2026-05-06 16:13 | 51.51191 | -0.32154 | 5422 ft | 262 kts | 50° |
| 2026-05-06 16:14 | 51.51367 | -0.31801 | 5523 ft | 263 kts | 50° |
| 2026-05-06 16:14 | 51.52428 | -0.29388 | 5872 ft | 264 kts | 64° |
| 2026-05-06 16:14 | 51.53047 | -0.26630 | 6176 ft | 267 kts | 70° |
| 2026-05-06 16:15 | 51.53699 | -0.23839 | 6562 ft | 268 kts | 61° |
| 2026-05-06 16:15 | 51.54823 | -0.21457 | 6931 ft | 269 kts | 41° |
| 2026-05-06 16:15 | 51.56387 | -0.19846 | 7308 ft | 269 kts | 22° |
| 2026-05-06 16:15 | 51.58124 | -0.18694 | 7734 ft | 271 kts | 22° |
| 2026-05-06 16:16 | 51.59894 | -0.17668 | 8115 ft | 272 kts | 15° |
| 2026-05-06 16:16 | 51.61711 | -0.16821 | 8510 ft | 273 kts | 15° |
| 2026-05-06 16:16 | 51.63540 | -0.15968 | 8898 ft | 275 kts | 15° |
| 2026-05-06 16:16 | 51.65369 | -0.15118 | 9309 ft | 277 kts | 14° |
| 2026-05-06 16:17 | 51.67226 | -0.14280 | 9763 ft | 276 kts | 13° |
| 2026-05-06 16:17 | 51.69101 | -0.13447 | 10359 ft | 286 kts | 17° |
| 2026-05-06 16:17 | 51.70956 | -0.12044 | 10960 ft | 304 kts | 30° |
| 2026-05-06 16:17 | 51.72669 | -0.09904 | 11558 ft | 321 kts | 42° |
| 2026-05-06 16:18 | 51.74134 | -0.07097 | 12178 ft | 336 kts | 54° |
| 2026-05-06 16:18 | 51.75246 | -0.03683 | 12795 ft | 351 kts | 68° |
| 2026-05-06 16:18 | 51.75872 | 0.00180 | 13434 ft | 361 kts | 81° |
| 2026-05-06 16:18 | 51.76211 | 0.04178 | 14019 ft | 366 kts | 81° |
| 2026-05-06 16:19 | 51.76553 | 0.08268 | 14601 ft | 370 kts | 81° |
| 2026-05-06 16:19 | 51.76896 | 0.12403 | 15192 ft | 373 kts | 82° |
| 2026-05-06 16:19 | 51.77238 | 0.16570 | 15803 ft | 377 kts | 82° |
| 2026-05-06 16:19 | 51.77582 | 0.20787 | 16421 ft | 380 kts | 82° |
| 2026-05-06 16:20 | 51.77956 | 0.25049 | 17055 ft | 383 kts | 78° |
| 2026-05-06 16:20 | 51.78597 | 0.29230 | 17684 ft | 387 kts | 74° |
| 2026-05-06 16:20 | 51.79275 | 0.33448 | 18343 ft | 390 kts | 75° |
| 2026-05-06 16:20 | 51.79950 | 0.37669 | 18911 ft | 394 kts | 75° |
| 2026-05-06 16:21 | 51.80636 | 0.41973 | 19495 ft | 397 kts | 75° |
| 2026-05-06 16:21 | 51.81326 | 0.46315 | 20087 ft | 401 kts | 75° |
| 2026-05-06 16:21 | 51.82020 | 0.50677 | 20695 ft | 404 kts | 75° |
| 2026-05-06 16:21 | 51.82719 | 0.55100 | 21311 ft | 406 kts | 75° |
| 2026-05-06 16:22 | 51.83417 | 0.59529 | 21942 ft | 408 kts | 75° |
| 2026-05-06 16:22 | 51.84117 | 0.63983 | 22583 ft | 409 kts | 75° |
| 2026-05-06 16:22 | 51.84817 | 0.68450 | 23248 ft | 410 kts | 75° |
| 2026-05-06 16:22 | 51.85514 | 0.72926 | 23849 ft | 411 kts | 76° |
| 2026-05-06 16:23 | 51.86200 | 0.77346 | 24402 ft | 411 kts | 76° |
| 2026-05-06 16:23 | 51.86896 | 0.81835 | 24985 ft | 410 kts | 76° |
| 2026-05-06 16:23 | 51.87587 | 0.86304 | 25578 ft | 409 kts | 76° |
| 2026-05-06 16:23 | 51.88276 | 0.90768 | 26172 ft | 408 kts | 76° |
| 2026-05-06 16:24 | 51.88962 | 0.95214 | 26791 ft | 407 kts | 76° |
| 2026-05-06 16:24 | 51.89646 | 0.99660 | 27426 ft | 405 kts | 76° |
| 2026-05-06 16:24 | 51.90324 | 1.04081 | 28070 ft | 403 kts | 77° |
| 2026-05-06 16:24 | 51.90993 | 1.08461 | 28732 ft | 401 kts | 77° |
| 2026-05-06 16:25 | 51.91658 | 1.12834 | 29409 ft | 398 kts | 77° |
| 2026-05-06 16:25 | 51.92307 | 1.17116 | 30083 ft | 395 kts | 77° |
| 2026-05-06 16:25 | 51.92954 | 1.21402 | 30660 ft | 391 kts | 77° |
| 2026-05-06 16:25 | 51.93595 | 1.25662 | 31276 ft | 387 kts | 77° |
| 2026-05-06 16:26 | 51.94232 | 1.29894 | 31893 ft | 383 kts | 77° |
| 2026-05-06 16:26 | 51.94861 | 1.34063 | 32526 ft | 378 kts | 77° |
| 2026-05-06 16:26 | 51.95486 | 1.38224 | 32892 ft | 382 kts | 77° |
| 2026-05-06 16:26 | 51.96111 | 1.42409 | 32971 ft | 393 kts | 77° |
| 2026-05-06 16:27 | 51.96760 | 1.46782 | 32971 ft | 405 kts | 77° |
| 2026-05-06 16:27 | 51.97426 | 1.51275 | 32974 ft | 416 kts | 77° |
| 2026-05-06 16:27 | 51.98115 | 1.55912 | 32971 ft | 428 kts | 77° |
| 2026-05-06 16:27 | 51.98817 | 1.60650 | 32969 ft | 439 kts | 77° |
| 2026-05-06 16:28 | 52.00272 | 1.70481 | 32968 ft | 454 kts | 77° |
| 2026-05-06 16:28 | 52.01735 | 1.80477 | 32969 ft | 456 kts | 78° |
| 2026-05-06 16:29 | 52.03179 | 1.90416 | 32968 ft | 456 kts | 78° |
| 2026-05-06 16:29 | 52.04625 | 2.00452 | 32968 ft | 456 kts | 78° |
| 2026-05-06 16:30 | 52.05816 | 2.08769 | 32965 ft | 456 kts | 78° |
| 2026-05-06 16:30 | 52.07486 | 2.20498 | 32962 ft | 455 kts | 78° |
| 2026-05-06 16:31 | 52.08902 | 2.30528 | 32951 ft | 455 kts | 78° |
| 2026-05-06 16:31 | 52.10308 | 2.40498 | 32947 ft | 455 kts | 78° |
| 2026-05-06 16:32 | 52.11730 | 2.50526 | 32939 ft | 455 kts | 77° |
| 2026-05-06 16:32 | 52.13509 | 2.60437 | 32938 ft | 456 kts | 73° |
| 2026-05-06 16:33 | 52.15501 | 2.70230 | 32935 ft | 456 kts | 73° |
| 2026-05-06 16:34 | 52.18364 | 2.84940 | 32928 ft | 456 kts | 75° |
| 2026-05-06 16:34 | 52.20193 | 2.94840 | 32930 ft | 456 kts | 75° |
| 2026-05-06 16:35 | 52.22021 | 3.04754 | 32924 ft | 457 kts | 75° |
| 2026-05-06 16:35 | 52.23853 | 3.14618 | 32919 ft | 457 kts | 75° |
| 2026-05-06 16:36 | 52.25548 | 3.24590 | 32915 ft | 456 kts | 82° |
| 2026-05-06 16:36 | 52.26147 | 3.34862 | 32918 ft | 454 kts | 88° |
| 2026-05-06 16:37 | 52.26644 | 3.45150 | 32913 ft | 455 kts | 88° |
| 2026-05-06 16:37 | 52.27147 | 3.55446 | 32915 ft | 455 kts | 88° |
| 2026-05-06 16:38 | 52.27639 | 3.65687 | 32908 ft | 455 kts | 88° |
| 2026-05-06 16:38 | 52.28121 | 3.75986 | 32915 ft | 455 kts | 88° |
| 2026-05-06 16:39 | 52.28590 | 3.86308 | 32907 ft | 456 kts | 88° |
| 2026-05-06 16:39 | 52.29046 | 3.96574 | 32907 ft | 456 kts | 89° |
| 2026-05-06 16:40 | 52.29493 | 4.06907 | 32916 ft | 456 kts | 89° |
| 2026-05-06 16:40 | 52.29931 | 4.17226 | 32911 ft | 456 kts | 89° |
| 2026-05-06 16:41 | 52.30371 | 4.27567 | 32904 ft | 456 kts | 89° |
| 2026-05-06 16:41 | 52.30799 | 4.37895 | 32898 ft | 456 kts | 89° |
| 2026-05-06 16:42 | 52.31216 | 4.48244 | 32896 ft | 456 kts | 89° |
| 2026-05-06 16:42 | 52.31622 | 4.58508 | 32903 ft | 456 kts | 89° |
| 2026-05-06 16:43 | 52.32016 | 4.68825 | 32897 ft | 455 kts | 89° |
| 2026-05-06 16:43 | 52.32397 | 4.79145 | 32900 ft | 455 kts | 89° |
| 2026-05-06 16:44 | 52.32777 | 4.89461 | 32893 ft | 455 kts | 90° |
| 2026-05-06 16:44 | 52.33144 | 4.99709 | 32806 ft | 456 kts | 90° |
| 2026-05-06 16:44 | 52.33262 | 5.04874 | 32524 ft | 454 kts | 95° |
| 2026-05-06 16:45 | 52.32939 | 5.09978 | 32255 ft | 450 kts | 104° |
| 2026-05-06 16:45 | 52.32134 | 5.14894 | 31982 ft | 446 kts | 113° |
| 2026-05-06 16:45 | 52.31009 | 5.19628 | 31751 ft | 446 kts | 115° |
| 2026-05-06 16:45 | 52.29874 | 5.24353 | 31474 ft | 447 kts | 115° |
| 2026-05-06 16:46 | 52.28741 | 5.29090 | 31207 ft | 448 kts | 114° |
| 2026-05-06 16:46 | 52.27612 | 5.33817 | 30956 ft | 448 kts | 114° |
| 2026-05-06 16:46 | 52.26479 | 5.38565 | 30707 ft | 449 kts | 114° |
| 2026-05-06 16:46 | 52.25358 | 5.43246 | 30449 ft | 449 kts | 114° |
| 2026-05-06 16:47 | 52.24217 | 5.47988 | 30187 ft | 449 kts | 114° |
| 2026-05-06 16:47 | 52.23072 | 5.52730 | 29976 ft | 449 kts | 114° |
| 2026-05-06 16:47 | 52.21926 | 5.57465 | 29891 ft | 449 kts | 114° |
| 2026-05-06 16:48 | 52.19638 | 5.66911 | 29913 ft | 451 kts | 115° |
| 2026-05-06 16:48 | 52.17329 | 5.76405 | 29916 ft | 451 kts | 115° |
| 2026-05-06 16:49 | 52.15005 | 5.85907 | 29921 ft | 452 kts | 115° |
| 2026-05-06 16:49 | 52.12669 | 5.95422 | 29882 ft | 453 kts | 115° |
| 2026-05-06 16:49 | 52.11497 | 6.00179 | 29588 ft | 454 kts | 115° |
| 2026-05-06 16:50 | 52.10325 | 6.04942 | 29203 ft | 454 kts | 114° |
| 2026-05-06 16:50 | 52.09385 | 6.09846 | 27509 ft | 469 kts | 105° |
| 2026-05-06 16:50 | 52.08821 | 6.15165 | 25830 ft | 484 kts | 101° |
| 2026-05-06 16:50 | 52.08461 | 6.18816 | 24883 ft | 488 kts | 101° |
| 2026-05-06 16:51 | 52.07745 | 6.25997 | 23775 ft | 479 kts | 101° |
| 2026-05-06 16:51 | 52.07207 | 6.31304 | 22914 ft | 471 kts | 101° |
| 2026-05-06 16:51 | 52.06666 | 6.36511 | 22008 ft | 465 kts | 101° |
| 2026-05-06 16:51 | 52.06121 | 6.41657 | 21137 ft | 459 kts | 101° |
| 2026-05-06 16:52 | 52.05576 | 6.46720 | 20341 ft | 452 kts | 101° |
| 2026-05-06 16:52 | 52.05041 | 6.51655 | 19559 ft | 447 kts | 101° |
| 2026-05-06 16:52 | 52.04505 | 6.56588 | 18798 ft | 443 kts | 101° |
| 2026-05-06 16:52 | 52.03969 | 6.61498 | 18083 ft | 438 kts | 101° |
| 2026-05-06 16:53 | 52.03442 | 6.66348 | 17303 ft | 433 kts | 101° |
| 2026-05-06 16:53 | 52.02926 | 6.71126 | 16554 ft | 427 kts | 101° |
| 2026-05-06 16:53 | 52.02191 | 6.75759 | 15815 ft | 421 kts | 110° |
| 2026-05-06 16:53 | 52.00988 | 6.80049 | 15088 ft | 416 kts | 120° |
| 2026-05-06 16:54 | 51.99487 | 6.84044 | 14350 ft | 412 kts | 122° |
| 2026-05-06 16:54 | 51.97996 | 6.87974 | 13656 ft | 407 kts | 122° |
| 2026-05-06 16:54 | 51.96544 | 6.91817 | 13056 ft | 400 kts | 122° |
| 2026-05-06 16:54 | 51.95125 | 6.95580 | 12852 ft | 382 kts | 122° |
| 2026-05-06 16:55 | 51.93773 | 6.99160 | 12869 ft | 362 kts | 122° |
| 2026-05-06 16:55 | 51.92486 | 7.02558 | 12870 ft | 347 kts | 122° |
| 2026-05-06 16:55 | 51.91253 | 7.05808 | 12811 ft | 332 kts | 123° |
| 2026-05-06 16:55 | 51.90053 | 7.08958 | 12549 ft | 324 kts | 123° |
| 2026-05-06 16:56 | 51.88889 | 7.12012 | 12289 ft | 317 kts | 123° |
| 2026-05-06 16:56 | 51.87754 | 7.14984 | 12033 ft | 310 kts | 123° |
| 2026-05-06 16:56 | 51.86633 | 7.17920 | 11775 ft | 304 kts | 124° |
| 2026-05-06 16:56 | 51.85532 | 7.20796 | 11526 ft | 297 kts | 123° |
| 2026-05-06 16:57 | 51.84455 | 7.23615 | 11278 ft | 292 kts | 123° |
| 2026-05-06 16:57 | 51.83399 | 7.26387 | 10891 ft | 292 kts | 123° |
| 2026-05-06 16:57 | 51.82304 | 7.29249 | 10201 ft | 304 kts | 124° |
| 2026-05-06 16:57 | 51.81202 | 7.32132 | 9912 ft | 300 kts | 124° |
| 2026-05-06 16:58 | 51.80100 | 7.35006 | 9444 ft | 300 kts | 123° |
| 2026-05-06 16:58 | 51.79001 | 7.37864 | 8960 ft | 301 kts | 123° |
| 2026-05-06 16:58 | 51.77888 | 7.40755 | 8269 ft | 307 kts | 124° |
| 2026-05-06 16:58 | 51.76746 | 7.43713 | 7288 ft | 321 kts | 123° |
| 2026-05-06 16:59 | 51.75534 | 7.46844 | 6211 ft | 336 kts | 123° |
| 2026-05-06 16:59 | 51.74272 | 7.50106 | 4991 ft | 349 kts | 122° |
| 2026-05-06 16:59 | 51.72978 | 7.53460 | 4039 ft | 353 kts | 122° |
| 2026-05-06 16:59 | 51.71535 | 7.56471 | 3472 ft | 327 kts | 136° |
| 2026-05-06 17:00 | 51.69729 | 7.58465 | 3077 ft | 302 kts | 154° |
| 2026-05-06 17:00 | 51.67835 | 7.59421 | 2993 ft | 271 kts | 169° |
| 2026-05-06 17:00 | 51.66098 | 7.59824 | 2995 ft | 241 kts | 169° |
| 2026-05-06 17:00 | 51.64528 | 7.60200 | 3001 ft | 217 kts | 169° |
| 2026-05-06 17:01 | 51.63106 | 7.60548 | 3017 ft | 194 kts | 169° |
| 2026-05-06 17:01 | 51.61840 | 7.60854 | 3007 ft | 180 kts | 168° |
| 2026-05-06 17:01 | 51.60622 | 7.61150 | 3005 ft | 175 kts | 168° |
| 2026-05-06 17:01 | 51.59432 | 7.61438 | 3011 ft | 172 kts | 168° |
| 2026-05-06 17:02 | 51.58249 | 7.61725 | 3015 ft | 171 kts | 168° |
| 2026-05-06 17:02 | 51.57080 | 7.62006 | 3008 ft | 170 kts | 168° |
| 2026-05-06 17:02 | 51.56303 | 7.62192 | 3013 ft | 170 kts | 168° |
| 2026-05-06 17:02 | 51.54741 | 7.62420 | 3008 ft | 172 kts | 180° |
| 2026-05-06 17:03 | 51.53550 | 7.62149 | 3005 ft | 174 kts | 192° |
| 2026-05-06 17:03 | 51.52414 | 7.61473 | 3005 ft | 175 kts | 205° |
| 2026-05-06 17:03 | 51.51385 | 7.60413 | 3008 ft | 177 kts | 218° |
| 2026-05-06 17:03 | 51.50521 | 7.59022 | 3005 ft | 177 kts | 231° |
| 2026-05-06 17:04 | 51.49763 | 7.57462 | 3020 ft | 177 kts | 231° |
| 2026-05-06 17:04 | 51.48998 | 7.55902 | 3011 ft | 178 kts | 231° |
| 2026-05-06 17:04 | 51.48490 | 7.54869 | 3006 ft | 177 kts | 231° |
| 2026-05-06 17:04 | 51.47725 | 7.53320 | 3012 ft | 177 kts | 231° |
| 2026-05-06 17:05 | 51.46960 | 7.51775 | 3004 ft | 177 kts | 231° |
| 2026-05-06 17:05 | 51.45948 | 7.49725 | 3010 ft | 177 kts | 231° |
| 2026-05-06 17:05 | 51.45188 | 7.48180 | 3007 ft | 178 kts | 231° |
| 2026-05-06 17:05 | 51.44681 | 7.47149 | 3003 ft | 178 kts | 231° |
| 2026-05-06 17:06 | 51.43906 | 7.45575 | 3013 ft | 177 kts | 231° |
| 2026-05-06 17:06 | 51.43154 | 7.44048 | 2991 ft | 176 kts | 231° |
| 2026-05-06 17:06 | 51.42393 | 7.42501 | 2952 ft | 176 kts | 231° |
| 2026-05-06 17:06 | 51.41638 | 7.40967 | 2909 ft | 172 kts | 231° |
| 2026-05-06 17:07 | 51.40913 | 7.39494 | 2867 ft | 166 kts | 231° |
| 2026-05-06 17:07 | 51.40263 | 7.38002 | 2824 ft | 164 kts | 248° |
| 2026-05-06 17:07 | 51.40096 | 7.36254 | 2778 ft | 161 kts | 279° |
| 2026-05-06 17:07 | 51.40492 | 7.34611 | 2773 ft | 156 kts | 309° |
| 2026-05-06 17:08 | 51.41359 | 7.33761 | 2716 ft | 146 kts | 359° |
| 2026-05-06 17:08 | 51.42255 | 7.34284 | 2673 ft | 141 kts | 47° |
| 2026-05-06 17:08 | 51.42712 | 7.35657 | 2605 ft | 141 kts | 64° |
| 2026-05-06 17:08 | 51.43223 | 7.36992 | 2562 ft | 140 kts | 59° |
| 2026-05-06 17:09 | 51.43716 | 7.38326 | 2501 ft | 139 kts | 60° |
| 2026-05-06 17:09 | 51.44206 | 7.39680 | 2508 ft | 140 kts | 60° |
| 2026-05-06 17:09 | 51.44690 | 7.41031 | 2506 ft | 139 kts | 59° |
| 2026-05-06 17:09 | 51.45174 | 7.42388 | 2503 ft | 140 kts | 60° |
| 2026-05-06 17:10 | 51.45655 | 7.43740 | 2505 ft | 138 kts | 60° |
| 2026-05-06 17:10 | 51.46121 | 7.45054 | 2500 ft | 134 kts | 60° |
| 2026-05-06 17:10 | 51.46582 | 7.46355 | 2430 ft | 134 kts | 60° |
| 2026-05-06 17:10 | 51.47008 | 7.47556 | 2305 ft | 132 kts | 59° |
| 2026-05-06 17:11 | 51.47461 | 7.48837 | 2147 ft | 132 kts | 59° |
| 2026-05-06 17:11 | 51.47912 | 7.50110 | 1959 ft | 132 kts | 59° |
| 2026-05-06 17:11 | 51.48365 | 7.51392 | 1798 ft | 132 kts | 59° |
| 2026-05-06 17:11 | 51.48818 | 7.52673 | 1623 ft | 131 kts | 58° |
| 2026-05-06 17:12 | 51.49273 | 7.53961 | 1439 ft | 133 kts | 58° |
| 2026-05-06 17:12 | 51.49724 | 7.55240 | 1244 ft | 132 kts | 58° |
| 2026-05-06 17:12 | 51.50175 | 7.56517 | 1057 ft | 133 kts | 58° |
| 2026-05-06 17:12 | 51.50637 | 7.57807 | 845 ft | 134 kts | 58° |
| 2026-05-06 17:13 | 51.51101 | 7.59111 | 675 ft | 134 kts | 59° |
| 2026-05-06 17:13 | 51.51551 | 7.60426 | 475 ft | 134 kts | 59° |
| 2026-05-06 17:13 | 51.51986 | 7.61676 | 418 ft | 123 kts | 56° |
| 2026-05-06 17:13 | 51.52457 | 7.63011 | 1017 ft | 148 kts | 58° |
| 2026-05-06 17:14 | 51.52995 | 7.64516 | 1950 ft | 165 kts | 58° |
| 2026-05-06 17:14 | 51.53617 | 7.66173 | 2615 ft | 170 kts | 58° |
| 2026-05-06 17:14 | 51.54219 | 7.67725 | 2712 ft | 166 kts | 58° |
| 2026-05-06 17:14 | 51.54869 | 7.69409 | 2968 ft | 193 kts | 57° |
| 2026-05-06 17:15 | 51.55589 | 7.71275 | 3004 ft | 198 kts | 58° |
| 2026-05-06 17:15 | 51.56343 | 7.73114 | 3002 ft | 198 kts | 50° |
| 2026-05-06 17:15 | 51.57518 | 7.74227 | 3007 ft | 201 kts | 13° |
| 2026-05-06 17:15 | 51.58906 | 7.73951 | 3009 ft | 208 kts | 339° |
| 2026-05-06 17:16 | 51.60225 | 7.73023 | 3002 ft | 205 kts | 349° |
| 2026-05-06 17:16 | 51.61596 | 7.73240 | 3001 ft | 200 kts | 27° |
| 2026-05-06 17:16 | 51.62595 | 7.74726 | 3009 ft | 198 kts | 56° |
| 2026-05-06 17:16 | 51.63258 | 7.76674 | 3005 ft | 199 kts | 68° |
| 2026-05-06 17:17 | 51.63420 | 7.78831 | 3004 ft | 201 kts | 96° |
| 2026-05-06 17:17 | 51.62869 | 7.80808 | 3002 ft | 188 kts | 129° |
| 2026-05-06 17:17 | 51.61840 | 7.81956 | 3000 ft | 177 kts | 158° |
| 2026-05-06 17:17 | 51.60632 | 7.82159 | 3000 ft | 177 kts | 186° |
| 2026-05-06 17:18 | 51.59504 | 7.81400 | 3007 ft | 178 kts | 217° |
| 2026-05-06 17:18 | 51.58724 | 7.79879 | 3014 ft | 178 kts | 239° |
| 2026-05-06 17:18 | 51.58074 | 7.78178 | 3011 ft | 177 kts | 238° |
| 2026-05-06 17:18 | 51.57423 | 7.76495 | 3007 ft | 177 kts | 238° |
| 2026-05-06 17:19 | 51.56779 | 7.74830 | 3006 ft | 178 kts | 238° |
| 2026-05-06 17:19 | 51.56082 | 7.73162 | 3007 ft | 178 kts | 235° |
| 2026-05-06 17:19 | 51.55361 | 7.71572 | 3003 ft | 178 kts | 234° |
| 2026-05-06 17:19 | 51.54623 | 7.69979 | 3006 ft | 178 kts | 234° |
| 2026-05-06 17:20 | 51.53880 | 7.68389 | 3008 ft | 178 kts | 233° |
| 2026-05-06 17:20 | 51.53142 | 7.66805 | 3006 ft | 177 kts | 233° |
| 2026-05-06 17:20 | 51.52407 | 7.65224 | 3006 ft | 177 kts | 233° |
| 2026-05-06 17:20 | 51.51671 | 7.63639 | 3011 ft | 177 kts | 233° |
| 2026-05-06 17:21 | 51.50938 | 7.62057 | 3012 ft | 176 kts | 233° |
| 2026-05-06 17:21 | 51.50209 | 7.60476 | 3017 ft | 177 kts | 233° |
| 2026-05-06 17:21 | 51.49482 | 7.58889 | 3010 ft | 177 kts | 234° |
| 2026-05-06 17:21 | 51.48758 | 7.57319 | 3006 ft | 177 kts | 233° |
| 2026-05-06 17:22 | 51.48021 | 7.55728 | 3007 ft | 177 kts | 233° |
| 2026-05-06 17:22 | 51.47285 | 7.54144 | 3003 ft | 175 kts | 234° |
| 2026-05-06 17:22 | 51.46576 | 7.52633 | 3000 ft | 168 kts | 233° |
| 2026-05-06 17:22 | 51.45902 | 7.51125 | 3000 ft | 166 kts | 237° |
| 2026-05-06 17:23 | 51.45260 | 7.49592 | 3004 ft | 165 kts | 236° |
| 2026-05-06 17:23 | 51.44620 | 7.48065 | 3011 ft | 166 kts | 237° |
| 2026-05-06 17:23 | 51.44203 | 7.46400 | 3003 ft | 163 kts | 267° |
| 2026-05-06 17:23 | 51.44429 | 7.44675 | 3006 ft | 158 kts | 303° |
| 2026-05-06 17:24 | 51.45265 | 7.43736 | 2957 ft | 146 kts | 1° |
| 2026-05-06 17:24 | 51.46125 | 7.44429 | 2796 ft | 142 kts | 59° |
| 2026-05-06 17:24 | 51.46384 | 7.45900 | 2611 ft | 136 kts | 72° |
| 2026-05-06 17:24 | 51.46878 | 7.47144 | 2412 ft | 133 kts | 53° |
| 2026-05-06 17:25 | 51.47329 | 7.48431 | 2219 ft | 132 kts | 60° |
| 2026-05-06 17:25 | 51.47778 | 7.49718 | 2046 ft | 132 kts | 59° |
| 2026-05-06 17:25 | 51.48231 | 7.51004 | 1864 ft | 132 kts | 59° |
| 2026-05-06 17:25 | 51.48681 | 7.52282 | 1685 ft | 131 kts | 58° |
| 2026-05-06 17:26 | 51.49129 | 7.53551 | 1501 ft | 133 kts | 58° |
| 2026-05-06 17:26 | 51.49583 | 7.54839 | 1304 ft | 132 kts | 58° |
| 2026-05-06 17:26 | 51.50037 | 7.56124 | 1111 ft | 134 kts | 58° |
| 2026-05-06 17:26 | 51.50470 | 7.57352 | 928 ft | 134 kts | 58° |
| 2026-05-06 17:27 | 51.50932 | 7.58663 | 743 ft | 135 kts | 57° |
| 2026-05-06 17:27 | 51.51390 | 7.59964 | 572 ft | 134 kts | 57° |
| 2026-05-06 17:27 | 51.51844 | 7.61239 | 420 ft | 121 kts | 55° |
| 2026-05-06 17:27 | 51.52156 | 7.62130 | 410 ft | 43 kts | 61° |
| 2026-05-06 17:28 | 51.52173 | 7.62317 | 414 ft | 10 kts | 130° |
| 2026-05-06 17:28 | 51.52139 | 7.62355 | 413 ft | 2 kts | 148° |
| 2026-05-06 17:28 | 51.52129 | 7.62365 | 413 ft | 2 kts | 148° |
| 2026-05-06 17:28 | 51.52118 | 7.62376 | 413 ft | 2 kts | 148° |
| 2026-05-06 17:29 | 51.52103 | 7.62389 | 413 ft | 3 kts | 155° |
| 2026-05-06 17:29 | 51.52057 | 7.62380 | 412 ft | 10 kts | 213° |
| 2026-05-06 17:29 | 51.52011 | 7.62272 | 410 ft | 13 kts | 241° |
| 2026-05-06 17:29 | 51.51957 | 7.62119 | 411 ft | 19 kts | 239° |
| 2026-05-06 17:30 | 51.51884 | 7.61912 | 413 ft | 21 kts | 243° |
| 2026-05-06 17:30 | 51.51809 | 7.61704 | 409 ft | 20 kts | 238° |
| 2026-05-06 17:30 | 51.51750 | 7.61537 | 416 ft | 17 kts | 241° |
| 2026-05-06 17:30 | 51.51691 | 7.61367 | 424 ft | 13 kts | 242° |
| 2026-05-06 17:31 | 51.51661 | 7.61309 | 424 ft | 5 kts | 192° |
| 2026-05-06 17:31 | 51.51623 | 7.61293 | 429 ft | 4 kts | 202° |
| 2026-05-06 17:31 | 51.51600 | 7.61291 | 428 ft | 0 kts | 164° |
| 2026-05-06 17:31 | 51.51594 | 7.61296 | 430 ft | 1 kts | 155° |
| 2026-05-06 17:32 | 51.51588 | 7.61301 | 432 ft | 0 kts | 153° |
| 2026-05-06 17:32 | 51.51585 | 7.61303 | 424 ft | 1 kts | 152° |
| 2026-05-06 17:32 | 51.51582 | 7.61306 | 425 ft | 0 kts | 151° |
| 2026-05-06 17:33 | 51.51580 | 7.61308 | 426 ft | 1 kts | 151° |
| 2026-05-06 17:33 | 51.51579 | 7.61309 | 426 ft | 0 kts | 151° |